Terminal Aerodrome Forecast
Issued by NWS Topeka, KS

Home | Current Version | Previous Version | Text Only | Print | Product List | Glossary Off
Versions: 1 2 3 4 5 6 7 8 9 10 11 12 13 14 15 16 17 18 19 20 21 22 23 24 25 26 27

000
FTUS43 KTOP 191732
TAFTOP
TAF
KTOP 191732Z 1918/2018 32010KT P6SM OVC007
     FM192100 36008KT P6SM VCSH OVC015
     FM200200 04009KT P6SM -SHRA OVC025
     FM200600 05008KT P6SM -RA OVC012 WS020/18035KT
     FM201200 31009KT 5SM -FZRA BR OVC008
     FM201500 33011KT P6SM OVC010=

USA.gov is the U.S. government's official web portal to all federal, state and local government web resources and services.